createdAt,value
2022-11-25T00:01:36.101Z,2.85
2022-11-25T00:04:05.490Z,2.42
2022-11-25T00:06:36.635Z,2.42
2022-11-25T00:09:06.801Z,2.78
2022-11-25T00:11:37.003Z,2.42
2022-11-25T00:14:08.372Z,3.13
2022-11-25T00:16:43.765Z,2.42
2022-11-25T00:19:17.725Z,2.42
2022-11-25T00:21:49.252Z,2.42
2022-11-25T00:24:19.075Z,2.80
2022-11-25T00:26:49.335Z,2.78
2022-11-25T00:29:18.080Z,2.00
2022-11-25T00:31:48.245Z,2.60
2022-11-25T00:34:16.885Z,2.88
2022-11-25T00:36:47.345Z,3.17
2022-11-25T00:39:19.903Z,2.63
2022-11-25T00:42:07.426Z,2.40
2022-11-25T00:44:38.924Z,2.92
2022-11-25T00:47:11.595Z,2.88
2022-11-25T00:49:40.873Z,2.45
2022-11-25T00:52:11.386Z,2.45
2022-11-25T00:54:42.081Z,2.58
2022-11-25T00:57:11.893Z,2.85
2022-11-25T00:59:41.466Z,2.35
2022-11-25T01:02:11.285Z,2.25
2022-11-25T01:04:39.835Z,3.17
2022-11-25T01:07:10.801Z,2.45
2022-11-25T01:09:39.226Z,3.30
2022-11-25T01:12:08.583Z,2.50
2022-11-25T01:14:38.421Z,2.40
2022-11-25T01:17:07.628Z,2.88
2022-11-25T01:19:40.256Z,3.08
2022-11-25T01:22:10.481Z,2.97
2022-11-25T01:24:39.077Z,2.70
2022-11-25T01:27:07.941Z,3.38
2022-11-25T01:29:41.425Z,2.40
2022-11-25T01:32:09.733Z,2.53
2022-11-25T01:34:38.404Z,2.60
2022-11-25T01:37:06.757Z,2.65
2022-11-25T01:39:36.426Z,2.33
2022-11-25T01:42:05.861Z,2.90
2022-11-25T01:44:37.376Z,2.60
2022-11-25T01:47:14.818Z,2.35
2022-11-25T01:49:49.055Z,2.80
2022-11-25T01:52:23.000Z,2.80
2022-11-25T01:54:57.966Z,2.70
2022-11-25T01:57:31.344Z,2.60
2022-11-25T02:00:04.082Z,2.20
2022-11-25T02:02:32.800Z,2.28
2022-11-25T02:05:02.392Z,2.90
2022-11-25T02:07:38.086Z,2.50
2022-11-25T02:10:13.852Z,2.42
2022-11-25T02:12:44.418Z,3.05
2022-11-25T02:15:15.057Z,2.58
2022-11-25T02:17:44.032Z,2.45
2022-11-25T02:20:16.195Z,2.60
2022-11-25T02:22:54.990Z,2.17
2022-11-25T02:25:26.948Z,2.70
2022-11-25T02:28:02.649Z,2.42
2022-11-25T02:30:31.503Z,2.42
2022-11-25T02:33:00.719Z,2.35
2022-11-25T02:35:37.091Z,2.58
2022-11-25T02:38:10.558Z,2.67
2022-11-25T02:40:53.654Z,2.58
2022-11-25T02:43:22.440Z,1.98
2022-11-25T02:45:56.572Z,2.20
2022-11-25T02:48:45.859Z,2.90
2022-11-25T02:51:16.370Z,3.00
2022-11-25T02:53:46.212Z,2.53
2022-11-25T02:56:16.762Z,2.85
2022-11-25T02:58:45.149Z,2.10
2022-11-25T03:01:13.477Z,2.50
2022-11-25T03:03:41.824Z,1.90
2022-11-25T03:06:12.986Z,1.98
2022-11-25T03:08:42.541Z,2.55
2022-11-25T03:11:12.528Z,2.75
2022-11-25T03:13:42.232Z,2.90
2022-11-25T03:16:10.948Z,2.25
2022-11-25T03:18:39.504Z,2.67
2022-11-25T03:21:08.290Z,3.05
2022-11-25T03:23:36.524Z,2.28
2022-11-25T03:26:07.899Z,2.25
2022-11-25T03:28:38.760Z,2.60
2022-11-25T03:31:13.387Z,3.05
2022-11-25T03:33:41.747Z,2.13
2022-11-25T03:36:09.972Z,2.85
2022-11-25T03:38:38.515Z,3.15
2022-11-25T03:41:07.156Z,3.33
2022-11-25T03:43:35.698Z,2.10
2022-11-25T03:46:04.276Z,2.50
2022-11-25T03:48:33.998Z,2.70
2022-11-25T03:51:02.996Z,2.15
2022-11-25T03:53:31.385Z,2.50
2022-11-25T03:55:59.546Z,2.33
2022-11-25T03:58:27.701Z,2.65
2022-11-25T04:01:00.560Z,2.90
2022-11-25T04:03:29.581Z,2.45
2022-11-25T04:06:00.832Z,2.60
2022-11-25T04:08:30.175Z,2.75
2022-11-25T04:10:58.929Z,2.33
2022-11-25T04:13:26.466Z,2.42
2022-11-25T04:15:55.132Z,2.33
2022-11-25T04:18:23.372Z,2.58
2022-11-25T04:20:52.326Z,2.40
2022-11-25T04:23:22.704Z,2.10
2022-11-25T04:25:51.678Z,2.40
2022-11-25T04:28:20.134Z,2.78
2022-11-25T04:30:48.511Z,2.30
2022-11-25T04:33:16.920Z,2.20
2022-11-25T04:35:45.185Z,2.67
2022-11-25T04:38:13.879Z,2.30
2022-11-25T04:40:45.321Z,1.98
2022-11-25T04:43:13.584Z,2.42
2022-11-25T04:46:12.429Z,2.25
2022-11-25T04:48:31.252Z,2.17
2022-11-25T04:50:59.696Z,2.40
2022-11-25T04:53:28.673Z,2.05
2022-11-25T04:55:58.263Z,2.20
2022-11-25T04:58:44.872Z,2.15
2022-11-25T05:01:14.565Z,1.90
2022-11-25T05:03:48.739Z,2.33
2022-11-25T05:06:19.561Z,2.53
2022-11-25T05:08:50.193Z,2.00
2022-11-25T05:11:22.092Z,1.95
2022-11-25T05:13:50.708Z,2.72
2022-11-25T05:16:19.917Z,2.08
2022-11-25T05:18:50.448Z,2.17
2022-11-25T05:21:18.754Z,2.30
2022-11-25T05:23:49.580Z,2.20
2022-11-25T05:26:21.487Z,2.58
2022-11-25T05:28:49.753Z,2.80
2022-11-25T05:31:18.071Z,2.78
2022-11-25T05:33:46.286Z,2.60
2022-11-25T05:36:15.950Z,2.75
2022-11-25T05:38:44.809Z,2.22
2022-11-25T05:41:15.418Z,2.38
2022-11-25T05:43:47.110Z,2.90
2022-11-25T05:46:16.309Z,2.35
2022-11-25T05:48:47.312Z,2.55
2022-11-25T05:51:16.012Z,3.22
2022-11-25T05:53:44.323Z,2.30
2022-11-25T05:56:13.089Z,2.30
2022-11-25T05:58:41.375Z,3.53
2022-11-25T06:01:12.666Z,2.85
2022-11-25T06:03:41.705Z,2.45
2022-11-25T06:06:11.700Z,2.35
2022-11-25T06:08:41.725Z,2.78
2022-11-25T06:11:13.019Z,3.67
2022-11-25T06:13:44.805Z,2.60
2022-11-25T06:16:18.318Z,3.28
2022-11-25T06:18:47.107Z,2.92
2022-11-25T06:21:16.132Z,2.40
2022-11-25T06:23:46.210Z,2.15
2022-11-25T06:26:16.359Z,2.97
2022-11-25T06:28:45.089Z,3.08
2022-11-25T06:31:18.709Z,2.75
2022-11-25T06:33:49.527Z,2.20
2022-11-25T06:36:19.945Z,2.30
2022-11-25T06:38:49.729Z,2.30
2022-11-25T06:41:18.642Z,3.08
2022-11-25T06:43:46.996Z,2.22
2022-11-25T06:46:24.872Z,2.60
2022-11-25T06:48:55.319Z,3.05
2022-11-25T06:51:24.587Z,2.17
2022-11-25T06:53:53.614Z,2.65
2022-11-25T06:56:23.888Z,2.47
2022-11-25T06:58:55.343Z,2.38
2022-11-25T07:01:27.169Z,2.28
2022-11-25T07:03:57.234Z,2.72
2022-11-25T07:06:28.103Z,2.45
2022-11-25T07:08:57.066Z,2.30
2022-11-25T07:11:28.119Z,2.15
2022-11-25T07:13:59.641Z,2.78
2022-11-25T07:16:30.040Z,2.38
2022-11-25T07:19:00.279Z,2.15
2022-11-25T07:21:32.203Z,2.10
2022-11-25T07:24:02.181Z,2.22
2022-11-25T07:26:32.277Z,1.98
2022-11-25T07:29:03.210Z,3.25
2022-11-25T07:31:34.736Z,2.30
2022-11-25T07:34:06.524Z,2.60
2022-11-25T07:36:36.211Z,2.53
2022-11-25T07:39:07.879Z,2.50
2022-11-25T07:41:38.374Z,2.15
2022-11-25T07:44:08.966Z,2.50
2022-11-25T07:46:40.836Z,2.38
2022-11-25T07:49:12.838Z,2.28
2022-11-25T07:51:43.053Z,2.25
2022-11-25T07:54:14.054Z,2.30
2022-11-25T07:56:44.665Z,2.95
2022-11-25T07:59:15.524Z,2.05
2022-11-25T08:01:46.314Z,1.75
2022-11-25T08:04:20.151Z,1.90
2022-11-25T08:06:53.009Z,1.92
2022-11-25T08:09:24.511Z,1.75
2022-11-25T08:11:54.526Z,2.45
2022-11-25T08:14:22.936Z,2.10
2022-11-25T08:16:54.165Z,1.48
2022-11-25T08:19:28.411Z,2.17
2022-11-25T08:22:00.034Z,2.05
2022-11-25T08:24:29.237Z,2.47
2022-11-25T08:26:58.755Z,2.45
2022-11-25T08:29:28.591Z,2.30
2022-11-25T08:31:58.470Z,1.45
2022-11-25T08:34:27.545Z,1.75
2022-11-25T08:36:56.299Z,2.10
2022-11-25T08:42:14.281Z,2.35
2022-11-25T08:44:42.543Z,2.00
2022-11-25T08:47:12.282Z,2.35
2022-11-25T08:49:42.003Z,2.47
2022-11-25T08:52:12.260Z,2.53
2022-11-25T08:54:40.528Z,1.85
2022-11-25T08:57:08.905Z,1.52
2022-11-25T08:59:40.501Z,1.65
2022-11-25T09:02:15.961Z,1.73
2022-11-25T09:04:46.011Z,1.75
2022-11-25T09:07:14.379Z,1.80
2022-11-25T09:09:42.818Z,1.65
2022-11-25T09:12:13.133Z,1.92
2022-11-25T09:14:41.903Z,2.17
2022-11-25T09:17:12.543Z,1.50
2022-11-25T09:19:41.279Z,1.60
2022-11-25T09:22:09.829Z,1.75
2022-11-25T09:24:38.127Z,2.10
2022-11-25T09:27:09.344Z,1.73
2022-11-25T09:29:40.796Z,1.88
2022-11-25T09:32:09.404Z,1.55
2022-11-25T09:34:39.342Z,2.05
2022-11-25T09:37:13.027Z,2.15
2022-11-25T09:39:41.354Z,2.83
2022-11-25T09:42:44.833Z,1.90
2022-11-25T09:45:38.786Z,2.65
2022-11-25T09:48:36.249Z,1.70
2022-11-25T09:51:15.780Z,2.10
2022-11-25T09:53:48.169Z,1.70
2022-11-25T09:56:27.069Z,1.60
2022-11-25T09:59:00.697Z,1.60
2022-11-25T10:01:31.928Z,2.10
2022-11-25T10:04:05.878Z,1.92
2022-11-25T10:06:44.887Z,2.30
2022-11-25T10:09:15.531Z,2.35
2022-11-25T10:11:51.996Z,2.17
2022-11-25T10:14:29.258Z,2.47
2022-11-25T10:17:07.945Z,2.45
2022-11-25T10:19:45.183Z,2.03
2022-11-25T10:22:24.636Z,2.10
2022-11-25T10:24:57.672Z,1.80
2022-11-25T10:27:32.529Z,2.50
2022-11-25T10:30:08.409Z,2.95
2022-11-25T10:32:42.965Z,2.75
2022-11-25T10:35:21.385Z,2.42
2022-11-25T10:37:55.447Z,2.63
2022-11-25T10:40:23.884Z,2.58
2022-11-25T10:42:55.351Z,2.50
2022-11-25T10:45:38.536Z,2.85
2022-11-25T10:48:29.076Z,2.67
2022-11-25T10:51:14.150Z,2.33
2022-11-25T10:54:03.949Z,2.38
2022-11-25T10:56:32.179Z,2.55
2022-11-25T10:59:13.550Z,2.60
2022-11-25T11:01:42.339Z,3.22
2022-11-25T11:04:18.401Z,2.92
2022-11-25T11:06:51.592Z,3.20
2022-11-25T11:09:34.332Z,2.75
2022-11-25T11:12:15.631Z,3.20
2022-11-25T11:14:44.624Z,3.22
2022-11-25T11:17:35.863Z,2.88
2022-11-25T11:20:17.173Z,3.50
2022-11-25T11:22:57.001Z,3.60
2022-11-25T11:25:43.711Z,3.50
2022-11-25T11:28:28.129Z,3.28
2022-11-25T11:30:59.861Z,3.10
2022-11-25T11:33:36.796Z,2.95
2022-11-25T11:36:22.287Z,3.17
2022-11-25T11:38:55.769Z,2.92
2022-11-25T11:41:40.900Z,3.15
2022-11-25T11:44:23.365Z,3.58
2022-11-25T11:47:04.603Z,4.07
2022-11-25T11:49:57.865Z,3.72
2022-11-25T11:52:34.105Z,3.53
2022-11-25T11:55:04.427Z,3.60
2022-11-25T11:57:44.657Z,4.35
2022-11-25T12:00:27.212Z,3.70
2022-11-25T12:03:00.984Z,4.28
2022-11-25T12:05:34.496Z,4.18
2022-11-25T12:08:10.102Z,4.78
2022-11-25T12:10:44.372Z,4.22
2022-11-25T12:13:21.929Z,4.68
2022-11-25T12:15:55.909Z,4.35
2022-11-25T12:18:42.145Z,4.45
2022-11-25T12:21:18.277Z,4.70
2022-11-25T12:23:55.863Z,4.72
2022-11-25T12:26:30.455Z,5.38
2022-11-25T12:29:06.744Z,4.88
2022-11-25T12:31:40.866Z,5.20
2022-11-25T12:34:13.610Z,5.35
2022-11-25T12:36:45.956Z,5.18
2022-11-25T12:39:25.413Z,6.15
2022-11-25T12:42:00.578Z,5.53
2022-11-25T12:44:36.008Z,5.50
2022-11-25T12:47:11.517Z,7.47
2022-11-25T12:49:44.812Z,5.40
2022-11-25T12:52:32.301Z,5.68
2022-11-25T12:55:11.048Z,5.60
2022-11-25T12:58:20.574Z,5.40
2022-11-25T13:01:30.715Z,5.70
2022-11-25T13:04:34.969Z,5.60
2022-11-25T13:07:25.721Z,5.88
2022-11-25T13:10:23.018Z,5.72
2022-11-25T13:13:21.913Z,5.82
2022-11-25T13:15:53.334Z,6.43
2022-11-25T13:18:26.447Z,5.93
2022-11-25T13:21:08.205Z,5.88
2022-11-25T13:23:52.121Z,5.95
2022-11-25T13:26:53.271Z,5.93
2022-11-25T13:30:04.607Z,6.82
2022-11-25T13:32:46.079Z,8.23
2022-11-25T13:35:36.352Z,6.95
2022-11-25T13:38:58.037Z,7.07
2022-11-25T13:41:45.093Z,7.03
2022-11-25T13:44:25.318Z,6.95
2022-11-25T13:46:54.643Z,7.88
2022-11-25T13:49:51.349Z,6.78
2022-11-25T13:52:41.735Z,7.03
2022-11-25T13:55:36.463Z,7.28
2022-11-25T13:58:19.089Z,6.80
2022-11-25T14:01:23.634Z,6.25
2022-11-25T14:04:00.176Z,7.03
2022-11-25T14:06:53.379Z,7.15
2022-11-25T14:09:39.251Z,6.95
2022-11-25T14:12:47.850Z,7.70
2022-11-25T14:15:44.971Z,7.72
2022-11-25T14:19:12.438Z,8.00
2022-11-25T14:21:45.398Z,8.57
2022-11-25T14:24:28.447Z,8.32
2022-11-25T14:26:59.407Z,7.78
2022-11-25T14:29:39.627Z,7.95
2022-11-25T14:32:14.374Z,8.65
2022-11-25T14:34:46.679Z,8.77
2022-11-25T14:37:18.692Z,8.98
2022-11-25T14:39:53.974Z,8.70
2022-11-25T14:42:24.886Z,9.55
2022-11-25T14:44:58.315Z,8.68
2022-11-25T14:47:30.606Z,9.48
2022-11-25T14:50:33.193Z,9.90
2022-11-25T14:52:56.467Z,8.65
2022-11-25T14:55:31.604Z,9.07
2022-11-25T14:57:59.931Z,9.25
2022-11-25T15:00:30.621Z,9.55
2022-11-25T15:03:02.492Z,9.70
2022-11-25T15:05:34.167Z,9.48
2022-11-25T15:08:11.308Z,9.63
2022-11-25T15:10:44.636Z,9.68
2022-11-25T15:13:24.994Z,11.73
2022-11-25T15:15:55.886Z,10.15
2022-11-25T15:18:26.820Z,10.82
2022-11-25T15:20:59.174Z,11.15
2022-11-25T15:23:34.805Z,10.95
2022-11-25T15:26:06.058Z,11.52
2022-11-25T15:28:38.575Z,10.60
2022-11-25T15:31:13.295Z,11.25
2022-11-25T15:33:42.601Z,11.32
2022-11-25T15:36:12.371Z,11.80
2022-11-25T15:38:43.413Z,12.40
2022-11-25T15:41:21.508Z,11.90
2022-11-25T15:43:52.569Z,12.30
2022-11-25T15:46:24.906Z,11.73
2022-11-25T15:48:58.687Z,13.50
2022-11-25T15:51:38.855Z,13.48
2022-11-25T15:54:18.396Z,13.02
2022-11-25T15:56:50.023Z,12.52
2022-11-25T15:59:40.891Z,12.98
2022-11-25T16:02:33.955Z,14.15
2022-11-25T16:05:31.772Z,13.20
2022-11-25T16:08:25.622Z,13.30
2022-11-25T16:10:57.155Z,11.57
2022-11-25T16:13:37.137Z,12.82
2022-11-25T16:16:23.927Z,12.00
2022-11-25T16:19:07.685Z,12.60
2022-11-25T16:21:51.057Z,12.30
2022-11-25T16:24:42.702Z,12.32
2022-11-25T16:27:21.926Z,12.63
2022-11-25T16:29:55.509Z,12.50
2022-11-25T16:32:25.890Z,12.50
2022-11-25T16:34:57.484Z,10.50
2022-11-25T16:37:26.392Z,11.68
2022-11-25T16:39:54.643Z,11.52
2022-11-25T16:42:23.635Z,11.10
2022-11-25T16:44:53.348Z,11.80
2022-11-25T16:47:22.900Z,12.65
2022-11-25T16:49:51.882Z,11.98
2022-11-25T16:52:25.175Z,12.60
2022-11-25T16:54:54.349Z,11.48
2022-11-25T16:57:23.108Z,12.70
2022-11-25T16:59:58.684Z,13.30
2022-11-25T17:02:27.762Z,14.05
2022-11-25T17:05:00.013Z,14.23
2022-11-25T17:07:33.203Z,13.27
2022-11-25T17:10:02.794Z,13.77
2022-11-25T17:12:36.055Z,15.00
2022-11-25T17:15:09.444Z,13.52
2022-11-25T17:17:41.314Z,13.18
2022-11-25T17:20:15.548Z,15.13
2022-11-25T17:22:45.435Z,13.90
2022-11-25T17:25:14.107Z,13.65
2022-11-25T17:27:43.582Z,15.45
2022-11-25T17:30:17.862Z,14.80
2022-11-25T17:32:46.833Z,15.40
2022-11-25T17:35:20.131Z,15.60
2022-11-25T17:37:50.307Z,14.90
2022-11-25T17:40:18.720Z,15.75
2022-11-25T17:42:49.943Z,16.52
2022-11-25T17:45:21.818Z,17.92
2022-11-25T17:47:50.456Z,18.42
2022-11-25T17:50:21.152Z,17.15
2022-11-25T17:52:51.369Z,17.58
2022-11-25T17:55:22.936Z,19.30
2022-11-25T17:57:52.977Z,19.05
2022-11-25T18:00:24.061Z,18.77
2022-11-25T18:02:53.373Z,19.23
2022-11-25T18:05:26.804Z,20.55
2022-11-25T18:07:57.434Z,19.52
2022-11-25T18:10:28.873Z,20.92
2022-11-25T18:12:57.983Z,19.60
2022-11-25T18:15:29.568Z,21.50
2022-11-25T18:18:02.778Z,20.63
2022-11-25T18:20:33.045Z,21.52
2022-11-25T18:23:03.888Z,20.73
2022-11-25T18:25:34.930Z,22.27
2022-11-25T18:28:05.986Z,20.77
2022-11-25T18:30:39.208Z,24.40
2022-11-25T18:33:13.443Z,22.95
2022-11-25T18:35:43.754Z,24.88
2022-11-25T18:38:15.068Z,23.95
2022-11-25T18:40:48.928Z,23.35
2022-11-25T18:43:25.675Z,24.20
2022-11-25T18:45:57.220Z,20.92
2022-11-25T18:48:27.345Z,21.20
2022-11-25T18:50:57.497Z,21.30
2022-11-25T18:53:29.676Z,20.27
2022-11-25T18:55:57.948Z,21.08
2022-11-25T18:58:28.308Z,21.17
2022-11-25T19:01:02.789Z,20.38
2022-11-25T19:03:31.521Z,21.67
2022-11-25T19:06:03.160Z,20.58
2022-11-25T19:08:32.919Z,20.23
2022-11-25T19:11:03.015Z,19.33
2022-11-25T19:13:34.270Z,18.67
2022-11-25T19:16:08.442Z,19.45
2022-11-25T19:18:36.874Z,17.17
2022-11-25T19:21:07.023Z,17.55
2022-11-25T19:23:36.515Z,17.90
2022-11-25T19:26:09.699Z,17.70
2022-11-25T19:28:38.069Z,17.42
2022-11-25T19:31:08.339Z,18.17
2022-11-25T19:33:39.452Z,18.83
2022-11-25T19:36:08.756Z,17.92
2022-11-25T19:38:42.543Z,17.50
2022-11-25T19:41:10.955Z,17.05
2022-11-25T19:43:39.110Z,17.50
2022-11-25T19:46:29.429Z,17.55
2022-11-25T19:49:01.005Z,18.30
2022-11-25T19:51:32.616Z,17.45
2022-11-25T19:54:02.230Z,18.23
2022-11-25T19:56:31.471Z,17.92
2022-11-25T19:59:00.408Z,17.45
2022-11-25T20:01:34.027Z,17.35
2022-11-25T20:04:03.491Z,16.17
2022-11-25T20:06:33.779Z,13.45
2022-11-25T20:09:07.973Z,13.80
2022-11-25T20:11:36.843Z,13.63
2022-11-25T20:14:05.180Z,15.52
2022-11-25T20:16:37.786Z,15.80
2022-11-25T20:19:07.675Z,16.02
2022-11-25T20:21:39.715Z,16.15
2022-11-25T20:24:15.077Z,14.50
2022-11-25T20:26:46.019Z,15.13
2022-11-25T20:29:17.596Z,15.02
2022-11-25T20:31:47.026Z,14.30
2022-11-25T20:34:15.457Z,13.32
2022-11-25T20:36:45.392Z,14.60
2022-11-25T20:39:20.298Z,14.25
2022-11-25T20:41:51.387Z,15.00
2022-11-25T20:44:22.448Z,15.65
2022-11-25T20:46:50.957Z,14.93
2022-11-25T20:49:27.586Z,16.08
2022-11-25T20:51:56.161Z,16.65
2022-11-25T20:54:28.240Z,16.75
2022-11-25T20:56:57.271Z,15.73
2022-11-25T20:59:26.028Z,15.43
2022-11-25T21:01:54.803Z,16.05
2022-11-25T21:04:25.147Z,14.57
2022-11-25T21:06:53.374Z,14.98
2022-11-25T21:09:25.574Z,15.93
2022-11-25T21:11:55.624Z,14.88
2022-11-25T21:14:25.318Z,13.82
2022-11-25T21:16:54.075Z,14.25
2022-11-25T21:19:24.616Z,15.50
2022-11-25T21:21:57.568Z,15.45
2022-11-25T21:24:31.667Z,16.23
2022-11-25T21:27:09.919Z,15.60
2022-11-25T21:29:44.615Z,17.70
2022-11-25T21:32:21.551Z,16.65
2022-11-25T21:34:49.835Z,15.30
2022-11-25T21:37:20.113Z,14.68
2022-11-25T21:39:50.719Z,14.73
2022-11-25T21:42:22.407Z,15.55
2022-11-25T21:44:52.056Z,15.55
2022-11-25T21:47:23.157Z,14.93
2022-11-25T21:49:51.869Z,15.05
2022-11-25T21:52:20.875Z,14.32
2022-11-25T21:54:49.503Z,13.93
2022-11-25T21:57:18.712Z,13.68
2022-11-25T21:59:49.919Z,14.50
2022-11-25T22:02:20.705Z,13.90
2022-11-25T22:04:50.473Z,13.82
2022-11-25T22:07:24.104Z,13.43
2022-11-25T22:09:56.195Z,12.82
2022-11-25T22:12:29.363Z,13.57
2022-11-25T22:15:00.512Z,12.30
2022-11-25T22:17:33.964Z,11.80
2022-11-25T22:20:02.329Z,12.60
2022-11-25T22:22:30.978Z,11.35
2022-11-25T22:24:59.342Z,12.63
2022-11-25T22:27:36.179Z,12.55
2022-11-25T22:30:07.580Z,14.13
2022-11-25T22:32:35.902Z,12.77
2022-11-25T22:35:13.919Z,13.07
2022-11-25T22:37:51.999Z,12.85
2022-11-25T22:40:24.260Z,12.98
2022-11-25T22:42:54.192Z,13.88
2022-11-25T22:45:30.752Z,13.02
2022-11-25T22:48:01.837Z,13.93
2022-11-25T22:50:34.030Z,13.95
2022-11-25T22:53:03.072Z,14.82
2022-11-25T22:55:33.375Z,14.48
2022-11-25T22:58:04.556Z,14.40
2022-11-25T23:00:39.621Z,14.40
2022-11-25T23:03:15.515Z,14.15
2022-11-25T23:05:43.911Z,14.77
2022-11-25T23:08:14.620Z,14.25
2022-11-25T23:10:44.322Z,14.85
2022-11-25T23:13:14.508Z,14.93
2022-11-25T23:15:49.337Z,13.80
2022-11-25T23:18:22.257Z,13.93
2022-11-25T23:20:50.790Z,14.25
2022-11-25T23:23:23.258Z,13.40
2022-11-25T23:25:54.803Z,13.77
2022-11-25T23:28:26.390Z,14.55
2022-11-25T23:30:58.009Z,13.80
2022-11-25T23:33:31.190Z,14.00
2022-11-25T23:36:06.176Z,12.57
2022-11-25T23:38:43.176Z,14.00
2022-11-25T23:41:16.508Z,13.57
2022-11-25T23:43:46.349Z,13.57
2022-11-25T23:46:16.707Z,12.98
2022-11-25T23:48:50.838Z,12.50
2022-11-25T23:51:19.596Z,11.68
2022-11-25T23:53:48.170Z,12.02
2022-11-25T23:56:17.256Z,11.70
2022-11-25T23:58:46.004Z,11.80
